createdAt,value
2019-03-16T00:02:02.304Z,5.13
2019-03-16T00:04:30.464Z,4.60
2019-03-16T00:06:58.599Z,4.63
2019-03-16T00:09:26.746Z,4.70
2019-03-16T00:11:54.955Z,5.63
2019-03-16T00:14:23.224Z,5.50
2019-03-16T00:16:51.386Z,9.17
2019-03-16T00:19:20.183Z,20.48
2019-03-16T00:21:48.368Z,20.90
2019-03-16T00:24:16.582Z,18.93
2019-03-16T00:26:44.694Z,13.20
2019-03-16T00:29:12.866Z,10.10
2019-03-16T00:31:40.993Z,10.72
2019-03-16T00:34:09.146Z,11.23
2019-03-16T00:36:37.303Z,10.03
2019-03-16T00:39:06.696Z,9.80
2019-03-16T00:41:34.864Z,8.47
2019-03-16T00:44:03.188Z,8.37
2019-03-16T00:46:31.360Z,6.30
2019-03-16T00:48:59.623Z,7.22
2019-03-16T00:51:27.764Z,7.73
2019-03-16T00:53:55.876Z,7.37
2019-03-16T00:56:24.011Z,5.30
2019-03-16T00:58:52.203Z,6.03
2019-03-16T01:01:20.354Z,4.93
2019-03-16T01:03:48.783Z,4.77
2019-03-16T01:06:16.886Z,3.90
2019-03-16T01:08:47.996Z,3.27
2019-03-16T01:11:16.092Z,3.47
2019-03-16T01:13:44.295Z,2.73
2019-03-16T01:16:12.454Z,2.73
2019-03-16T01:18:40.577Z,3.33
2019-03-16T01:21:08.725Z,2.80
2019-03-16T01:23:36.837Z,2.33
2019-03-16T01:26:04.977Z,2.03
2019-03-16T01:28:33.122Z,2.35
2019-03-16T01:31:01.242Z,2.63
2019-03-16T01:33:29.408Z,2.07
2019-03-16T01:35:57.524Z,2.47
2019-03-16T01:38:25.676Z,2.37
2019-03-16T01:40:53.787Z,2.50
2019-03-16T01:43:21.941Z,2.27
2019-03-16T01:45:50.096Z,2.80
2019-03-16T01:48:18.204Z,2.47
2019-03-16T01:50:46.341Z,2.87
2019-03-16T01:53:14.554Z,2.60
2019-03-16T01:55:42.668Z,3.02
2019-03-16T01:58:10.993Z,4.10
2019-03-16T02:00:39.242Z,3.50
2019-03-16T02:03:07.348Z,3.02
2019-03-16T02:05:35.474Z,2.07
2019-03-16T02:08:03.734Z,2.60
2019-03-16T02:10:31.907Z,3.17
2019-03-16T02:13:00.022Z,6.20
2019-03-16T02:15:28.156Z,7.73
2019-03-16T02:17:56.351Z,7.70
2019-03-16T02:20:24.529Z,7.63
2019-03-16T02:22:52.747Z,6.17
2019-03-16T02:25:20.942Z,6.60
2019-03-16T02:27:49.052Z,6.67
2019-03-16T02:30:17.265Z,3.97
2019-03-16T02:32:45.358Z,3.30
2019-03-16T02:35:14.273Z,2.57
2019-03-16T02:37:42.422Z,3.23
2019-03-16T02:40:10.913Z,2.30
2019-03-16T02:42:40.208Z,2.23
2019-03-16T02:45:11.131Z,3.00
2019-03-16T02:47:39.361Z,2.43
2019-03-16T02:50:09.000Z,3.53
2019-03-16T02:52:37.146Z,2.58
2019-03-16T02:55:06.621Z,2.08
2019-03-16T02:57:35.011Z,1.67
2019-03-16T03:00:04.772Z,2.40
2019-03-16T03:02:32.942Z,2.73
2019-03-16T03:05:01.053Z,2.87
2019-03-16T03:07:29.295Z,4.15
2019-03-16T03:09:57.519Z,7.58
2019-03-16T03:12:25.691Z,5.27
2019-03-16T03:14:54.742Z,4.73
2019-03-16T03:17:23.005Z,3.20
2019-03-16T03:19:51.649Z,2.40
2019-03-16T03:22:19.767Z,2.43
2019-03-16T03:24:48.020Z,1.80
2019-03-16T03:27:16.126Z,2.10
2019-03-16T03:29:44.265Z,2.47
2019-03-16T03:32:12.512Z,2.27
2019-03-16T03:34:40.744Z,1.97
2019-03-16T03:37:08.868Z,2.40
2019-03-16T03:39:37.152Z,2.67
2019-03-16T03:42:05.335Z,2.93
2019-03-16T03:44:33.492Z,2.27
2019-03-16T03:47:01.636Z,2.13
2019-03-16T03:49:29.744Z,3.13
2019-03-16T03:51:57.853Z,2.90
2019-03-16T03:54:26.731Z,3.27
2019-03-16T03:56:54.938Z,3.20
2019-03-16T03:59:23.039Z,3.40
2019-03-16T04:01:51.195Z,3.92
2019-03-16T04:04:19.376Z,4.57
2019-03-16T04:06:47.556Z,4.00
2019-03-16T04:09:15.672Z,4.40
2019-03-16T04:11:43.786Z,4.27
2019-03-16T04:14:11.960Z,4.03
2019-03-16T04:16:40.064Z,4.23
2019-03-16T04:19:08.221Z,4.85
2019-03-16T04:21:36.398Z,6.20
2019-03-16T04:24:04.506Z,7.12
2019-03-16T04:26:32.606Z,6.37
2019-03-16T04:29:00.728Z,7.75
2019-03-16T04:31:28.847Z,7.60
2019-03-16T04:33:57.040Z,7.63
2019-03-16T04:36:25.275Z,7.97
2019-03-16T04:38:53.411Z,8.13
2019-03-16T04:41:21.584Z,8.58
2019-03-16T04:43:49.688Z,9.10
2019-03-16T04:46:17.797Z,8.30
2019-03-16T04:48:45.900Z,7.93
2019-03-16T04:51:14.016Z,9.63
2019-03-16T04:53:42.118Z,9.73
2019-03-16T04:56:10.246Z,9.77
2019-03-16T04:58:38.396Z,9.48
2019-03-16T05:01:06.492Z,9.70
2019-03-16T05:03:34.602Z,9.77
2019-03-16T05:06:02.719Z,9.97
2019-03-16T05:08:30.967Z,9.77
2019-03-16T05:10:59.184Z,10.67
2019-03-16T05:13:27.308Z,11.07
2019-03-16T05:16:14.890Z,10.45
2019-03-16T05:18:43.724Z,11.78
2019-03-16T05:21:11.862Z,10.93
2019-03-16T05:23:39.997Z,11.70
2019-03-16T05:26:08.138Z,10.05
2019-03-16T05:28:37.983Z,11.87
2019-03-16T05:31:06.152Z,10.57
2019-03-16T05:33:34.356Z,10.27
2019-03-16T05:36:02.462Z,10.10
2019-03-16T05:38:30.590Z,11.68
2019-03-16T05:40:58.720Z,10.43
2019-03-16T05:43:26.829Z,9.57
2019-03-16T05:45:54.942Z,11.30
2019-03-16T05:48:23.060Z,9.93
2019-03-16T05:50:51.169Z,9.35
2019-03-16T05:53:19.293Z,8.83
2019-03-16T05:55:47.393Z,8.63
2019-03-16T05:58:15.631Z,10.13
2019-03-16T06:00:43.760Z,9.47
2019-03-16T06:03:11.923Z,8.80
2019-03-16T06:05:40.093Z,9.57
2019-03-16T06:08:08.247Z,9.27
2019-03-16T06:10:36.445Z,8.40
2019-03-16T06:13:04.596Z,8.13
2019-03-16T06:15:32.696Z,7.67
2019-03-16T06:18:00.836Z,7.95
2019-03-16T06:20:28.981Z,6.80
2019-03-16T06:22:57.110Z,6.22
2019-03-16T06:25:25.222Z,6.67
2019-03-16T06:27:53.835Z,6.30
2019-03-16T06:30:22.010Z,5.93
2019-03-16T06:32:50.180Z,7.33
2019-03-16T06:35:24.516Z,7.20
2019-03-16T06:37:48.308Z,6.03
2019-03-16T06:40:16.554Z,5.15
2019-03-16T06:42:44.757Z,6.07
2019-03-16T06:45:12.858Z,5.30
2019-03-16T06:47:41.064Z,5.43
2019-03-16T06:50:10.839Z,5.27
2019-03-16T06:52:38.956Z,5.73
2019-03-16T06:57:41.145Z,4.93
2019-03-16T07:00:10.793Z,7.47
2019-03-16T07:02:38.909Z,8.17
2019-03-16T07:05:08.626Z,8.90
2019-03-16T07:07:36.803Z,9.35
2019-03-16T07:10:06.752Z,9.90
2019-03-16T07:12:34.984Z,12.50
2019-03-16T07:15:03.710Z,10.90
2019-03-16T07:17:32.030Z,12.17
2019-03-16T07:20:00.357Z,9.47
2019-03-16T07:22:28.709Z,6.90
2019-03-16T07:24:56.804Z,8.93
2019-03-16T07:27:26.300Z,7.93
2019-03-16T07:29:54.791Z,8.53
2019-03-16T07:32:22.906Z,9.37
2019-03-16T07:34:51.015Z,9.93
2019-03-16T07:37:19.126Z,11.63
2019-03-16T07:39:47.391Z,11.83
2019-03-16T07:42:15.604Z,10.47
2019-03-16T07:44:43.739Z,9.57
2019-03-16T07:47:11.858Z,8.08
2019-03-16T07:49:39.984Z,7.70
2019-03-16T07:52:14.883Z,8.25
2019-03-16T07:54:43.078Z,6.00
2019-03-16T07:57:11.777Z,5.62
2019-03-16T07:59:39.914Z,4.83
2019-03-16T08:02:08.025Z,4.80
2019-03-16T08:04:36.169Z,3.87
2019-03-16T08:07:04.344Z,3.53
2019-03-16T08:09:32.536Z,2.50
2019-03-16T08:12:01.064Z,2.90
2019-03-16T08:14:29.921Z,2.00
2019-03-16T08:16:58.045Z,2.50
2019-03-16T08:19:26.199Z,2.40
2019-03-16T08:21:54.456Z,2.10
2019-03-16T08:24:22.625Z,1.03
2019-03-16T08:26:52.473Z,1.50
2019-03-16T08:29:20.588Z,1.57
2019-03-16T08:31:48.705Z,1.70
2019-03-16T08:34:16.898Z,1.97
2019-03-16T08:36:45.024Z,2.40
2019-03-16T08:39:13.155Z,3.50
2019-03-16T08:41:41.269Z,2.90
2019-03-16T08:44:09.424Z,1.97
2019-03-16T08:46:37.589Z,1.83
2019-03-16T08:49:05.711Z,2.00
2019-03-16T08:51:36.248Z,2.03
2019-03-16T08:54:04.371Z,2.40
2019-03-16T08:56:32.484Z,1.60
2019-03-16T08:59:00.626Z,2.30
2019-03-16T09:01:28.861Z,2.07
2019-03-16T09:03:57.114Z,2.03
2019-03-16T09:06:25.321Z,3.30
2019-03-16T09:08:53.612Z,2.80
2019-03-16T09:11:21.828Z,3.30
2019-03-16T09:13:50.001Z,2.53
2019-03-16T09:16:18.230Z,1.67
2019-03-16T09:18:46.414Z,2.00
2019-03-16T09:21:14.533Z,2.30
2019-03-16T09:23:42.664Z,1.17
2019-03-16T09:26:10.874Z,1.53
2019-03-16T09:28:39.108Z,1.40
2019-03-16T09:31:07.313Z,1.30
2019-03-16T09:33:36.165Z,1.83
2019-03-16T09:36:04.416Z,2.00
2019-03-16T09:38:34.114Z,1.93
2019-03-16T09:41:02.296Z,1.23
2019-03-16T09:43:33.365Z,1.60
2019-03-16T09:46:01.528Z,1.62
2019-03-16T09:48:29.670Z,1.40
2019-03-16T09:50:57.784Z,1.40
2019-03-16T09:53:25.936Z,1.10
2019-03-16T09:55:54.122Z,1.77
2019-03-16T09:58:31.280Z,1.40
2019-03-16T10:00:58.703Z,1.40
2019-03-16T10:03:22.112Z,1.50
2019-03-16T10:05:50.217Z,2.33
2019-03-16T10:08:19.349Z,2.05
2019-03-16T10:10:47.660Z,1.77
2019-03-16T10:13:15.787Z,1.97
2019-03-16T10:15:43.935Z,1.57
2019-03-16T10:18:12.071Z,2.10
2019-03-16T10:20:40.191Z,2.27
2019-03-16T10:23:09.854Z,2.37
2019-03-16T10:25:37.964Z,2.40
2019-03-16T10:28:06.057Z,3.10
2019-03-16T10:30:34.350Z,1.80
2019-03-16T10:33:02.494Z,2.17
2019-03-16T10:35:30.660Z,1.80
2019-03-16T10:37:58.847Z,1.80
2019-03-16T10:40:28.722Z,1.53
2019-03-16T10:42:56.814Z,1.60
2019-03-16T10:45:25.037Z,2.00
2019-03-16T10:47:53.250Z,2.10
2019-03-16T10:50:21.469Z,2.43
2019-03-16T10:52:49.682Z,1.63
2019-03-16T10:55:17.767Z,1.73
2019-03-16T10:57:45.952Z,1.17
2019-03-16T11:00:17.314Z,2.00
2019-03-16T11:02:45.562Z,1.77
2019-03-16T11:05:13.856Z,2.17
2019-03-16T11:07:41.971Z,1.57
2019-03-16T11:10:10.841Z,2.00
2019-03-16T11:12:39.093Z,1.43
2019-03-16T11:15:09.095Z,1.30
2019-03-16T11:17:37.375Z,1.50
2019-03-16T11:20:09.421Z,1.60
2019-03-16T11:22:37.588Z,1.73
2019-03-16T11:25:06.376Z,1.70
2019-03-16T11:27:34.531Z,1.87
2019-03-16T11:30:02.737Z,2.07
2019-03-16T11:32:30.916Z,1.57
2019-03-16T11:34:59.088Z,2.10
2019-03-16T11:37:27.243Z,2.60
2019-03-16T11:39:55.441Z,3.13
2019-03-16T11:42:23.622Z,3.40
2019-03-16T11:44:51.764Z,2.15
2019-03-16T11:47:19.991Z,2.03
2019-03-16T11:50:07.559Z,2.70
2019-03-16T11:52:35.783Z,1.57
2019-03-16T11:55:04.909Z,2.10
2019-03-16T11:57:33.029Z,1.27
2019-03-16T12:00:01.208Z,1.70
2019-03-16T12:02:29.373Z,1.57
2019-03-16T12:04:57.501Z,1.82
2019-03-16T12:07:25.604Z,2.70
2019-03-16T12:09:53.790Z,1.77
2019-03-16T12:12:22.018Z,2.20
2019-03-16T12:14:50.248Z,2.17
2019-03-16T12:17:18.428Z,1.82
2019-03-16T12:19:46.537Z,1.83
2019-03-16T12:22:14.641Z,1.70
2019-03-16T12:24:42.765Z,2.00
2019-03-16T12:27:11.653Z,2.00
2019-03-16T12:29:39.761Z,1.87
2019-03-16T12:32:07.959Z,1.70
2019-03-16T12:34:36.250Z,1.82
2019-03-16T12:37:04.413Z,2.10
2019-03-16T12:39:35.477Z,1.70
2019-03-16T12:42:03.992Z,1.90
2019-03-16T12:44:32.199Z,1.60
2019-03-16T12:47:00.321Z,1.70
2019-03-16T12:49:28.455Z,2.03
2019-03-16T12:51:56.604Z,1.63
2019-03-16T12:54:24.787Z,1.97
2019-03-16T12:56:52.908Z,1.70
2019-03-16T12:59:21.238Z,1.80
2019-03-16T13:01:49.448Z,1.90
2019-03-16T13:04:17.648Z,1.60
2019-03-16T13:06:45.921Z,1.80
2019-03-16T13:09:14.174Z,1.80
2019-03-16T13:11:42.443Z,1.50
2019-03-16T13:14:10.610Z,1.92
2019-03-16T13:16:38.826Z,2.20
2019-03-16T13:19:06.927Z,1.85
2019-03-16T13:21:35.112Z,2.00
2019-03-16T13:24:03.840Z,1.35
2019-03-16T13:26:32.147Z,1.98
2019-03-16T13:29:00.376Z,1.20
2019-03-16T13:31:28.617Z,1.57
2019-03-16T13:33:56.763Z,2.20
2019-03-16T13:36:24.931Z,2.90
2019-03-16T13:38:53.108Z,2.67
2019-03-16T13:41:21.807Z,2.30
2019-03-16T13:43:49.905Z,2.33
2019-03-16T13:46:18.069Z,2.77
2019-03-16T13:48:46.279Z,2.00
2019-03-16T13:51:14.528Z,1.37
2019-03-16T13:53:42.847Z,1.40
2019-03-16T13:56:11.016Z,1.63
2019-03-16T13:58:40.804Z,2.10
2019-03-16T14:01:09.129Z,4.10
2019-03-16T14:03:37.391Z,5.00
2019-03-16T14:06:05.867Z,9.00
2019-03-16T14:08:34.053Z,14.93
2019-03-16T14:11:02.324Z,16.90
2019-03-16T14:13:32.400Z,14.30
2019-03-16T14:16:00.594Z,15.93
2019-03-16T14:18:31.855Z,15.10
2019-03-16T14:21:19.375Z,13.50
2019-03-16T14:23:47.591Z,5.50
2019-03-16T14:26:15.707Z,4.47
2019-03-16T14:28:47.328Z,4.50
2019-03-16T14:31:13.895Z,2.85
2019-03-16T14:33:42.054Z,3.50
2019-03-16T14:36:10.247Z,2.25
2019-03-16T14:38:38.783Z,1.70
2019-03-16T14:41:07.158Z,2.37
2019-03-16T14:43:35.368Z,2.40
2019-03-16T14:46:03.681Z,2.27
2019-03-16T14:48:31.872Z,2.47
2019-03-16T14:51:00.047Z,1.77
2019-03-16T14:53:28.296Z,2.40
2019-03-16T14:55:56.609Z,2.00
2019-03-16T14:58:24.801Z,2.07
2019-03-16T15:00:52.991Z,1.82
2019-03-16T15:03:21.188Z,2.10
2019-03-16T15:05:49.311Z,2.72
2019-03-16T15:08:17.464Z,3.80
2019-03-16T15:10:45.669Z,2.35
2019-03-16T15:13:13.857Z,3.70
2019-03-16T15:15:42.140Z,3.73
2019-03-16T15:18:10.281Z,3.00
2019-03-16T15:20:41.357Z,2.17
2019-03-16T15:23:09.511Z,3.67
2019-03-16T15:25:37.629Z,2.97
2019-03-16T15:28:05.827Z,1.83
2019-03-16T15:30:33.939Z,2.63
2019-03-16T15:33:02.062Z,3.40
2019-03-16T15:35:30.352Z,4.97
2019-03-16T15:37:58.648Z,3.87
2019-03-16T15:40:26.767Z,2.33
2019-03-16T15:42:55.042Z,2.40
2019-03-16T15:45:24.908Z,1.60
2019-03-16T15:47:53.369Z,2.10
2019-03-16T15:50:21.565Z,3.60
2019-03-16T15:52:49.679Z,2.00
2019-03-16T15:55:18.043Z,2.87
2019-03-16T15:57:46.208Z,4.90
2019-03-16T16:00:15.003Z,2.60
2019-03-16T16:02:43.308Z,3.00
2019-03-16T16:05:11.497Z,2.27
2019-03-16T16:07:39.696Z,3.12
2019-03-16T16:10:09.496Z,2.07
2019-03-16T16:12:37.633Z,4.17
2019-03-16T16:15:06.958Z,2.90
2019-03-16T16:17:35.094Z,2.90
2019-03-16T16:20:04.497Z,3.27
2019-03-16T16:22:32.668Z,2.90
2019-03-16T16:25:00.954Z,1.87
2019-03-16T16:27:29.129Z,2.97
2019-03-16T16:29:57.356Z,2.80
2019-03-16T16:32:25.650Z,5.77
2019-03-16T16:34:53.978Z,3.23
2019-03-16T16:37:24.573Z,2.30
2019-03-16T16:39:52.826Z,3.17
2019-03-16T16:42:23.702Z,2.20
2019-03-16T16:44:51.866Z,2.50
2019-03-16T16:47:20.128Z,3.10
2019-03-16T16:49:48.320Z,2.40
2019-03-16T16:52:16.442Z,2.02
2019-03-16T16:54:44.611Z,2.20
2019-03-16T16:57:12.707Z,2.52
2019-03-16T16:59:43.535Z,3.70
2019-03-16T17:02:12.384Z,3.47
2019-03-16T17:04:40.813Z,3.73
2019-03-16T17:07:08.964Z,3.03
2019-03-16T17:09:37.108Z,2.60
2019-03-16T17:12:05.335Z,3.17
2019-03-16T17:14:33.486Z,2.10
2019-03-16T17:17:01.678Z,2.47
2019-03-16T17:19:30.522Z,2.30
2019-03-16T17:21:58.687Z,2.60
2019-03-16T17:24:26.825Z,2.63
2019-03-16T17:26:54.963Z,3.12
2019-03-16T17:29:23.124Z,2.57
2019-03-16T17:31:51.232Z,2.20
2019-03-16T17:34:19.385Z,2.70
2019-03-16T17:36:47.511Z,2.90
2019-03-16T17:39:15.692Z,3.23
2019-03-16T17:41:43.827Z,2.80
2019-03-16T17:44:11.961Z,3.60
2019-03-16T17:46:40.070Z,3.00
2019-03-16T17:49:08.193Z,3.30
2019-03-16T17:51:36.308Z,3.53
2019-03-16T17:54:05.088Z,2.53
2019-03-16T17:56:33.237Z,2.97
2019-03-16T17:59:01.396Z,2.60
2019-03-16T18:01:29.525Z,2.77
2019-03-16T18:03:57.684Z,2.57
2019-03-16T18:06:28.642Z,2.83
2019-03-16T18:08:56.807Z,2.60
2019-03-16T18:11:25.066Z,3.20
2019-03-16T18:13:53.214Z,3.07
2019-03-16T18:16:21.699Z,3.93
2019-03-16T18:18:49.876Z,7.43
2019-03-16T18:21:18.113Z,4.93
2019-03-16T18:23:46.293Z,4.70
2019-03-16T18:26:14.441Z,4.30
2019-03-16T18:28:42.716Z,5.23
2019-03-16T18:31:10.900Z,5.13
2019-03-16T18:33:39.059Z,7.10
2019-03-16T18:36:11.380Z,5.87
2019-03-16T18:38:38.647Z,4.63
2019-03-16T18:41:06.807Z,4.13
2019-03-16T18:43:34.962Z,5.10
2019-03-16T18:46:03.080Z,5.33
2019-03-16T18:48:31.247Z,5.97
2019-03-16T18:51:00.109Z,4.00
2019-03-16T18:53:28.287Z,3.80
2019-03-16T18:55:57.216Z,3.37
2019-03-16T18:58:36.653Z,3.47
2019-03-16T19:00:55.390Z,4.00
2019-03-16T19:03:23.546Z,3.60
2019-03-16T19:05:51.768Z,3.57
2019-03-16T19:08:19.872Z,4.22
2019-03-16T19:10:48.463Z,4.80
2019-03-16T19:13:17.404Z,3.53
2019-03-16T19:15:45.528Z,3.23
2019-03-16T19:18:13.750Z,4.80
2019-03-16T19:20:41.960Z,4.20
2019-03-16T19:23:10.246Z,4.17
2019-03-16T19:25:38.397Z,3.57
2019-03-16T19:28:06.514Z,3.33
2019-03-16T19:30:34.746Z,3.90
2019-03-16T19:33:02.859Z,4.10
2019-03-16T19:35:31.070Z,3.80
2019-03-16T19:37:59.335Z,4.03
2019-03-16T19:40:27.567Z,3.90
2019-03-16T19:42:55.755Z,4.40
2019-03-16T19:45:23.902Z,4.27
2019-03-16T19:47:52.043Z,4.47
2019-03-16T19:50:21.773Z,3.50
2019-03-16T19:52:49.910Z,4.03
2019-03-16T19:55:18.043Z,3.60
2019-03-16T19:57:46.165Z,3.40
2019-03-16T20:00:14.783Z,3.70
2019-03-16T20:02:50.113Z,4.10
2019-03-16T20:05:13.132Z,4.50
2019-03-16T20:07:41.408Z,3.27
2019-03-16T20:10:13.343Z,4.08
2019-03-16T20:12:41.531Z,3.13
2019-03-16T20:15:11.198Z,3.62
2019-03-16T20:17:39.492Z,2.93
2019-03-16T20:20:17.078Z,3.40
2019-03-16T20:22:45.230Z,3.07
2019-03-16T20:25:13.613Z,3.13
2019-03-16T20:27:41.980Z,3.03
2019-03-16T20:30:11.641Z,3.10
2019-03-16T20:32:39.814Z,3.53
2019-03-16T20:35:08.402Z,3.73
2019-03-16T20:37:36.585Z,3.53
2019-03-16T20:40:06.174Z,4.33
2019-03-16T20:42:34.306Z,3.57
2019-03-16T20:45:02.542Z,3.50
2019-03-16T20:50:05.988Z,3.27
2019-03-16T20:52:34.099Z,3.77
2019-03-16T20:55:02.229Z,3.40
2019-03-16T20:57:30.351Z,3.63
2019-03-16T20:59:58.520Z,3.17
2019-03-16T21:02:26.795Z,3.37
2019-03-16T21:04:54.977Z,3.07
2019-03-16T21:07:23.137Z,8.53
2019-03-16T21:09:51.248Z,3.90
2019-03-16T21:12:19.483Z,3.23
2019-03-16T21:14:47.657Z,3.40
2019-03-16T21:17:15.892Z,3.45
2019-03-16T21:19:44.154Z,3.20
2019-03-16T21:22:12.415Z,3.37
2019-03-16T21:24:40.526Z,3.47
2019-03-16T21:27:08.823Z,3.80
2019-03-16T21:29:36.986Z,2.70
2019-03-16T21:32:05.128Z,3.23
2019-03-16T21:34:33.495Z,3.62
2019-03-16T21:37:01.918Z,3.30
2019-03-16T21:39:30.050Z,3.80
2019-03-16T21:41:58.221Z,3.20
2019-03-16T21:44:26.386Z,3.20
2019-03-16T21:46:54.577Z,3.40
2019-03-16T21:49:23.430Z,3.27
2019-03-16T21:51:51.639Z,3.10
2019-03-16T21:54:19.803Z,3.23
2019-03-16T21:56:48.004Z,3.27
2019-03-16T21:59:16.162Z,3.43
2019-03-16T22:01:44.384Z,3.50
2019-03-16T22:04:12.646Z,2.90
2019-03-16T22:06:41.325Z,3.90
2019-03-16T22:09:09.682Z,3.50
2019-03-16T22:11:37.791Z,3.50
2019-03-16T22:14:05.985Z,3.33
2019-03-16T22:16:34.129Z,3.30
2019-03-16T22:19:02.353Z,4.10
2019-03-16T22:21:30.530Z,4.03
2019-03-16T22:23:59.427Z,3.63
2019-03-16T22:26:27.716Z,4.50
2019-03-16T22:28:55.988Z,3.47
2019-03-16T22:31:24.195Z,3.47
2019-03-16T22:33:54.819Z,4.53
2019-03-16T22:36:22.298Z,3.57
2019-03-16T22:38:50.388Z,3.57
2019-03-16T22:41:19.131Z,3.37
2019-03-16T22:43:47.240Z,4.40
2019-03-16T22:46:15.367Z,3.90
2019-03-16T22:48:43.537Z,3.93
2019-03-16T22:51:11.652Z,3.92
2019-03-16T22:53:39.836Z,4.17
2019-03-16T22:56:07.983Z,5.60
2019-03-16T22:58:36.772Z,5.10
2019-03-16T23:01:05.530Z,5.23
2019-03-16T23:03:34.426Z,4.50
2019-03-16T23:06:06.337Z,4.73
2019-03-16T23:08:34.317Z,4.97
2019-03-16T23:11:02.474Z,5.07
2019-03-16T23:13:30.622Z,4.83
2019-03-16T23:15:58.929Z,5.25
2019-03-16T23:18:27.145Z,4.43
2019-03-16T23:20:55.320Z,4.85
2019-03-16T23:23:23.453Z,4.70
2019-03-16T23:25:52.455Z,4.50
2019-03-16T23:28:20.661Z,4.67
2019-03-16T23:30:48.772Z,5.37
2019-03-16T23:33:16.896Z,4.83
2019-03-16T23:35:45.035Z,3.93
2019-03-16T23:38:13.217Z,3.85
2019-03-16T23:40:42.478Z,3.90
2019-03-16T23:43:11.139Z,4.97
2019-03-16T23:45:39.312Z,3.72
2019-03-16T23:48:07.415Z,3.37
2019-03-16T23:50:35.600Z,3.67
2019-03-16T23:53:03.862Z,2.77
2019-03-16T23:55:32.113Z,2.45
2019-03-16T23:58:01.872Z,3.13
